Time;durP1;ratioP1;P1;durP2;ratioP2;P2;SDS_P1;SDS_P2;PMS_P1;PMS_P2;Temp;Humidity;BMP_temperature;BMP_pressure;BME280_temperature;BME280_humidity;BME280_pressure;Samples;Min_cycle;Max_cycle;Signal;HPM_P1;HPM_P2
2020/12/21 00:00:11;;;;;;;15.27;12.47;;;;;;;7.19;100.00;98885.81;4975165;28;20304;-64
2020/12/21 00:02:37;;;;;;;15.00;12.00;;;;;;;7.20;100.00;98887.50;4975128;28;20620;-64
2020/12/21 00:05:04;;;;;;;16.27;12.37;;;;;;;7.21;100.00;98893.63;4975224;28;20218;-64
2020/12/21 00:07:30;;;;;;;14.47;11.33;;;;;;;7.16;100.00;98890.34;4974996;28;20273;-64
2020/12/21 00:09:56;;;;;;;13.13;11.03;;;;;;;7.18;100.00;98894.63;4973243;28;20218;-64
2020/12/21 00:12:22;;;;;;;16.13;11.53;;;;;;;7.22;100.00;98896.19;4974996;28;20235;-64
2020/12/21 00:14:47;;;;;;;15.90;11.57;;;;;;;7.23;100.00;98903.16;4975056;28;20217;-64
2020/12/21 00:17:14;;;;;;;14.93;12.13;;;;;;;7.21;100.00;98899.72;4975014;28;20265;-64
2020/12/21 00:19:40;;;;;;;14.43;11.20;;;;;;;7.19;100.00;98896.31;4975052;28;20218;-64
2020/12/21 00:22:06;;;;;;;15.73;11.83;;;;;;;7.19;100.00;98896.31;4974780;28;20214;-64
2020/12/21 00:24:32;;;;;;;13.30;11.47;;;;;;;7.17;100.00;98892.91;4974633;28;20222;-64
2020/12/21 00:26:58;;;;;;;15.53;11.97;;;;;;;7.18;100.00;98895.44;4974886;28;20261;-64
2020/12/21 00:29:24;;;;;;;14.17;11.03;;;;;;;7.22;100.00;98896.19;4974800;28;20668;-63
2020/12/21 00:31:50;;;;;;;15.20;11.47;;;;;;;7.23;100.00;98890.00;4974876;28;20216;-63
2020/12/21 00:34:18;;;;;;;14.23;10.93;;;;;;;7.20;100.00;98887.50;4955678;28;549755;-63
2020/12/21 00:36:45;;;;;;;13.90;11.30;;;;;;;7.22;100.00;98896.19;4974528;28;20269;-63
2020/12/21 00:39:12;;;;;;;13.03;11.27;;;;;;;7.18;100.00;98894.63;4975569;28;20218;-63
2020/12/21 00:41:38;;;;;;;13.80;11.43;;;;;;;7.08;100.00;98885.41;4975619;28;20222;-63
2020/12/21 00:44:04;;;;;;;14.53;11.43;;;;;;;7.06;100.00;98900.41;4975098;28;20214;-63
2020/12/21 00:46:31;;;;;;;16.67;11.87;;;;;;;6.90;100.00;98894.06;4975369;28;20218;-63
2020/12/21 00:48:59;;;;;;;15.27;11.17;;;;;;;6.74;100.00;98898.28;4975478;28;20222;-63
2020/12/21 00:51:26;;;;;;;14.30;10.83;;;;;;;6.56;100.00;98899.06;4975257;28;20571;-63
2020/12/21 00:53:53;;;;;;;14.50;11.37;;;;;;;6.50;100.00;98909.81;4975049;28;20237;-63
2020/12/21 00:56:20;;;;;;;17.03;12.83;;;;;;;6.51;100.00;98905.38;4975146;28;20217;-63
2020/12/21 00:58:47;;;;;;;15.00;12.00;;;;;;;6.56;100.00;98903.44;4975267;28;20209;-63
2020/12/21 01:01:15;;;;;;;14.70;11.40;;;;;;;6.56;100.00;98906.94;4973548;28;20219;-63
2020/12/21 01:03:41;;;;;;;17.80;12.57;;;;;;;6.69;100.00;98910.75;4975072;28;20211;-63
2020/12/21 01:06:07;;;;;;;16.97;13.00;;;;;;;6.72;100.00;98912.41;4975042;28;20265;-64
2020/12/21 01:08:34;;;;;;;16.77;12.77;;;;;;;6.75;100.00;98915.75;4974846;28;20226;-63
2020/12/21 01:11:01;;;;;;;17.93;12.50;;;;;;;6.72;100.00;98915.88;4975061;28;20218;-64
2020/12/21 01:13:27;;;;;;;16.60;12.10;;;;;;;6.69;100.00;98905.50;4974316;28;20237;-63
2020/12/21 01:15:53;;;;;;;16.03;12.40;;;;;;;6.70;100.00;98917.72;4974916;28;20225;-63
2020/12/21 01:18:19;;;;;;;15.13;12.37;;;;;;;6.76;100.00;98917.47;4974823;28;20589;-63
2020/12/21 01:20:45;;;;;;;15.20;12.03;;;;;;;6.81;100.00;98923.38;4974622;28;20243;-63
2020/12/21 01:23:11;;;;;;;15.43;12.20;;;;;;;6.88;100.00;98922.19;4974732;28;20211;-64
2020/12/21 01:25:38;;;;;;;14.83;11.97;;;;;;;6.91;100.00;98919.44;4974894;28;20249;-63
2020/12/21 01:28:05;;;;;;;14.70;11.33;;;;;;;6.93;100.00;98916.75;4973106;28;20217;-63
2020/12/21 01:30:31;;;;;;;15.17;11.63;;;;;;;6.96;100.00;98922.72;4974618;28;20211;-63
2020/12/21 01:32:57;;;;;;;15.03;12.67;;;;;;;7.02;100.00;98930.34;4974452;28;20245;-63
2020/12/21 01:35:23;;;;;;;15.03;12.70;;;;;;;7.02;100.00;98925.09;4974460;28;20328;-63
2020/12/21 01:37:48;;;;;;;15.70;12.33;;;;;;;7.05;100.00;98929.38;4974521;28;20213;-63
2020/12/21 01:40:14;;;;;;;14.17;11.10;;;;;;;7.03;100.00;98925.97;4974536;28;20599;-63
2020/12/21 01:42:41;;;;;;;17.33;12.83;;;;;;;7.03;100.00;98920.69;4974234;28;20423;-63
2020/12/21 01:45:09;;;;;;;15.07;11.57;;;;;;;7.00;100.00;98924.31;4974566;28;20217;-63
2020/12/21 01:47:35;;;;;;;15.53;11.07;;;;;;;6.98;100.00;98915.66;4974470;28;20218;-63
2020/12/21 01:50:01;;;;;;;14.53;11.57;;;;;;;6.84;100.00;98906.63;4974467;28;20206;-63
2020/12/21 01:52:28;;;;;;;14.63;11.87;;;;;;;6.65;100.00;98913.59;4973266;28;20211;-63
2020/12/21 01:54:54;;;;;;;14.23;11.40;;;;;;;6.50;100.00;98914.19;4974020;28;20222;-63
2020/12/21 01:57:20;;;;;;;16.47;11.73;;;;;;;6.40;100.00;98911.09;4974340;28;20224;-63
2020/12/21 01:59:47;;;;;;;14.60;12.40;;;;;;;6.32;100.00;98905.28;4974228;28;20684;-63
2020/12/21 02:02:13;;;;;;;16.67;12.17;;;;;;;6.22;100.00;98909.19;4974319;28;20261;-63
2020/12/21 02:04:39;;;;;;;16.27;12.40;;;;;;;6.26;100.00;98904.66;4974348;28;20216;-63
2020/12/21 02:07:06;;;;;;;14.37;11.57;;;;;;;6.27;100.00;98911.63;4974327;28;20224;-64
2020/12/21 02:09:33;;;;;;;14.20;11.50;;;;;;;6.23;100.00;98910.06;4974187;28;20580;-64
2020/12/21 02:11:59;;;;;;;14.30;11.60;;;;;;;6.14;100.00;98908.66;4974289;28;20601;-63
2020/12/21 02:14:25;;;;;;;15.13;11.50;;;;;;;6.07;100.00;98914.19;4973764;28;20272;-63
2020/12/21 02:16:51;;;;;;;14.20;11.27;;;;;;;5.93;100.00;98921.75;4974298;28;20305;-64
2020/12/21 02:19:18;;;;;;;16.10;11.10;;;;;;;5.72;100.00;98918.13;4972640;28;20574;-65
2020/12/21 02:21:45;;;;;;;15.90;11.97;;;;;;;5.62;100.00;98916.75;4973854;28;20680;-65
2020/12/21 02:24:11;;;;;;;18.17;12.67;;;;;;;5.48;100.00;98924.28;4974054;28;20223;-64
2020/12/21 02:26:37;;;;;;;15.53;12.00;;;;;;;5.33;100.00;98919.59;4977961;28;20214;-64
2020/12/21 02:29:03;;;;;;;16.53;13.00;;;;;;;5.37;100.00;98915.94;4977850;28;20220;-64
2020/12/21 02:31:29;;;;;;;17.33;13.43;;;;;;;5.50;100.00;98919.81;4977938;28;20217;-64
2020/12/21 02:33:55;;;;;;;16.63;13.20;;;;;;;5.63;100.00;98907.97;4977804;28;20266;-64
2020/12/21 02:36:21;;;;;;;20.53;13.87;;;;;;;5.73;100.00;98909.34;4977920;28;20556;-62
2020/12/21 02:38:48;;;;;;;18.60;13.97;;;;;;;5.84;100.00;98904.59;4977582;28;20212;-62
2020/12/21 02:41:15;;;;;;;17.37;13.37;;;;;;;5.85;100.00;98901.03;4977892;28;20212;-63
2020/12/21 02:43:41;;;;;;;16.00;13.40;;;;;;;5.92;100.00;98902.50;4977813;28;20215;-62
2020/12/21 02:46:08;;;;;;;16.00;12.73;;;;;;;5.91;100.00;98898.19;4976048;28;20274;-63
2020/12/21 02:48:34;;;;;;;16.23;11.70;;;;;;;5.80;100.00;98895.09;4977336;28;20272;-62
2020/12/21 02:51:00;;;;;;;14.20;11.27;;;;;;;5.75;100.00;98886.53;4977354;28;20215;-62
2020/12/21 02:53:26;;;;;;;15.40;11.50;;;;;;;5.69;100.00;98878.88;4977509;28;20289;-62
2020/12/21 02:55:53;;;;;;;14.47;11.50;;;;;;;5.75;100.00;98893.56;4977306;28;20220;-65
2020/12/21 02:58:19;;;;;;;15.13;12.40;;;;;;;5.74;100.00;98884.81;4977549;28;20213;-65
2020/12/21 03:00:45;;;;;;;17.30;12.63;;;;;;;5.70;100.00;98872.75;4978392;28;20760;-65
2020/12/21 03:03:12;;;;;;;15.10;12.17;;;;;;;5.67;100.00;98887.75;4978733;28;20223;-65
2020/12/21 03:05:38;;;;;;;14.93;11.03;;;;;;;5.69;100.00;98891.16;4979211;28;20562;-63
2020/12/21 03:08:06;;;;;;;18.33;12.57;;;;;;;5.76;100.00;98887.38;4978145;28;20214;-64
2020/12/21 03:10:32;;;;;;;16.90;12.37;;;;;;;5.79;100.00;98882.88;4976140;28;20432;-65
2020/12/21 03:12:59;;;;;;;16.73;13.30;;;;;;;5.86;100.00;98888.78;4976896;28;20332;-65
2020/12/21 03:15:25;;;;;;;15.97;11.80;;;;;;;5.88;100.00;98887.81;4977160;28;20218;-66
2020/12/21 03:17:51;;;;;;;13.80;11.30;;;;;;;5.83;100.00;98889.75;4977164;28;20231;-66
2020/12/21 03:20:17;;;;;;;15.50;11.77;;;;;;;5.74;100.00;98890.06;4977064;28;20571;-65
2020/12/21 03:22:43;;;;;;;15.63;11.67;;;;;;;5.62;100.00;98884.44;4977082;28;20219;-65
2020/12/21 03:25:09;;;;;;;15.47;11.73;;;;;;;5.55;100.00;98888.22;4976967;28;20352;-65
2020/12/21 03:27:35;;;;;;;14.70;11.10;;;;;;;5.47;100.00;98887.63;4977006;28;20210;-65
2020/12/21 03:30:04;;;;;;;13.73;10.83;;;;;;;5.37;100.00;98883.66;4976977;28;20612;-64
2020/12/21 03:32:30;;;;;;;14.53;11.60;;;;;;;5.29;100.00;98894.41;4976685;28;20216;-64
2020/12/21 03:34:56;;;;;;;17.17;12.27;;;;;;;5.29;100.00;98893.53;4976360;28;20258;-63
2020/12/21 03:37:22;;;;;;;15.00;12.10;;;;;;;5.29;100.00;98891.78;4974991;28;20253;-64
2020/12/21 03:39:48;;;;;;;16.40;12.27;;;;;;;5.35;100.00;98901.19;4976669;28;20217;-64
2020/12/21 03:42:14;;;;;;;16.53;12.80;;;;;;;5.26;100.00;98899.72;4976605;28;20299;-65
2020/12/21 03:44:40;;;;;;;16.57;12.73;;;;;;;5.22;100.00;98906.03;4976407;28;20674;-66
2020/12/21 03:47:06;;;;;;;17.30;12.60;;;;;;;5.15;100.00;98894.06;4976726;28;20253;-66
2020/12/21 03:49:32;;;;;;;14.30;11.90;;;;;;;5.06;100.00;98891.75;4976473;28;20715;-64
2020/12/21 03:51:58;;;;;;;17.70;12.47;;;;;;;4.95;100.00;98886.00;4976637;28;20220;-64
2020/12/21 03:54:25;;;;;;;16.83;13.97;;;;;;;4.91;100.00;98889.66;4976406;28;20793;-65
2020/12/21 03:56:51;;;;;;;17.67;12.60;;;;;;;4.86;100.00;98890.72;4976074;28;20706;-64
2020/12/21 03:59:16;;;;;;;22.80;13.13;;;;;;;4.81;100.00;98898.75;4976326;28;20219;-64
2020/12/21 04:01:42;;;;;;;18.27;12.03;;;;;;;4.73;100.00;98887.69;4976293;28;20228;-64
2020/12/21 04:04:09;;;;;;;17.13;13.13;;;;;;;4.67;100.00;98885.28;4974635;28;20313;-63
2020/12/21 04:06:36;;;;;;;16.67;12.83;;;;;;;4.61;100.00;98887.22;4976352;28;20247;-63
2020/12/21 04:09:03;;;;;;;17.70;13.50;;;;;;;4.55;100.00;98874.34;4976331;28;20231;-63
2020/12/21 04:11:29;;;;;;;17.27;12.80;;;;;;;4.49;100.00;98885.88;4976218;28;20213;-63
2020/12/21 04:13:55;;;;;;;17.33;13.07;;;;;;;4.38;100.00;98877.53;4976034;28;20295;-63
2020/12/21 04:16:21;;;;;;;18.60;12.90;;;;;;;4.28;100.00;98880.50;4976010;28;20241;-64
2020/12/21 04:18:47;;;;;;;17.23;12.73;;;;;;;4.30;100.00;98873.44;4975649;28;20300;-64
2020/12/21 04:21:14;;;;;;;19.00;12.50;;;;;;;4.29;100.00;98872.56;4975967;28;20220;-63
2020/12/21 04:23:41;;;;;;;17.03;13.20;;;;;;;4.22;100.00;98872.84;4975934;28;20217;-64
2020/12/21 04:26:07;;;;;;;16.90;12.97;;;;;;;4.14;100.00;98873.09;4975607;28;20680;-64
2020/12/21 04:28:34;;;;;;;17.23;12.97;;;;;;;4.19;100.00;98871.19;4974071;28;20727;-63
2020/12/21 04:31:01;;;;;;;17.57;13.23;;;;;;;4.09;100.00;98872.38;4975687;28;20218;-64
2020/12/21 04:33:27;;;;;;;18.83;13.73;;;;;;;3.94;100.00;98875.50;4975681;28;20241;-64
2020/12/21 04:35:53;;;;;;;19.13;13.57;;;;;;;3.93;100.00;98873.78;4975725;28;20224;-64
2020/12/21 04:38:20;;;;;;;19.60;14.23;;;;;;;3.96;100.00;98863.22;4975554;28;20659;-65
2020/12/21 04:40:50;;;;;;;19.10;13.57;;;;;;;4.00;100.00;98864.84;4975235;28;20673;-65
2020/12/21 04:43:16;;;;;;;19.77;14.33;;;;;;;4.04;100.00;98855.97;4975620;28;20221;-65
2020/12/21 04:45:43;;;;;;;20.83;15.20;;;;;;;4.10;100.00;98849.69;4975542;28;20215;-64
2020/12/21 04:48:14;;;;;;;20.93;15.20;;;;;;;4.20;100.00;98854.56;4974742;28;20267;-65
2020/12/21 04:50:41;;;;;;;19.97;14.90;;;;;;;4.23;100.00;98846.63;4975761;28;20213;-64
2020/12/21 04:53:08;;;;;;;21.37;15.37;;;;;;;4.24;100.00;98848.34;4975384;28;20249;-64
2020/12/21 04:55:35;;;;;;;20.63;13.73;;;;;;;4.37;100.00;98849.66;4973791;28;20222;-65
2020/12/21 04:58:02;;;;;;;21.17;15.70;;;;;;;4.47;100.00;98847.59;4975081;28;20674;-63
2020/12/21 05:00:31;;;;;;;23.60;16.00;;;;;;;4.59;100.00;98855.84;4975192;28;20673;-63
2020/12/21 05:02:57;;;;;;;23.43;15.90;;;;;;;4.67;100.00;98853.00;4975274;28;20220;-64
2020/12/21 05:05:30;;;;;;;20.80;14.80;;;;;;;4.79;100.00;98842.09;4975153;28;20222;-63
2020/12/21 05:07:57;;;;;;;21.73;14.47;;;;;;;4.86;100.00;98849.69;4974887;28;20677;-64
2020/12/21 05:10:23;;;;;;;21.17;15.63;;;;;;;4.90;100.00;98846.03;4974903;28;20217;-64
2020/12/21 05:13:00;;;;;;;21.80;15.73;;;;;;;4.92;100.00;98844.22;4974985;28;20262;-65
2020/12/21 05:15:26;;;;;;;22.17;15.97;;;;;;;5.02;100.00;98842.97;4975043;28;20213;-65
2020/12/21 05:18:05;;;;;;;22.10;16.23;;;;;;;5.09;100.00;98849.72;4974745;28;20215;-65
2020/12/21 05:20:31;;;;;;;21.00;15.20;;;;;;;5.13;100.00;98853.94;4973796;28;20213;-65
2020/12/21 05:22:57;;;;;;;19.23;14.43;;;;;;;5.17;100.00;98845.06;4974494;28;20215;-67
2020/12/21 05:25:23;;;;;;;21.53;15.47;;;;;;;5.14;100.00;98842.53;4974821;28;20219;-64
2020/12/21 05:27:49;;;;;;;20.07;14.90;;;;;;;5.17;100.00;98841.56;4975019;28;20218;-65
2020/12/21 05:30:16;;;;;;;21.57;15.27;;;;;;;5.17;100.00;98845.06;4975184;28;20213;-65
2020/12/21 05:32:42;;;;;;;20.93;14.80;;;;;;;5.17;100.00;98839.81;4974672;28;20213;-65
2020/12/21 05:35:10;;;;;;;19.00;14.30;;;;;;;5.16;100.00;98851.22;4974557;28;20237;-65
2020/12/21 05:37:38;;;;;;;16.87;13.50;;;;;;;5.14;100.00;98860.88;4974750;28;20208;-64
2020/12/21 05:40:06;;;;;;;19.97;14.83;;;;;;;5.14;100.00;98860.03;4974484;28;20566;-64
2020/12/21 05:42:34;;;;;;;20.67;15.27;;;;;;;5.18;100.00;98865.09;4974331;28;20626;-64
2020/12/21 05:45:02;;;;;;;19.63;14.33;;;;;;;5.21;100.00;98859.78;4974506;28;20211;-65
2020/12/21 05:47:29;;;;;;;18.80;13.80;;;;;;;5.24;100.00;98862.25;4972992;28;20214;-65
2020/12/21 05:49:57;;;;;;;21.13;14.60;;;;;;;5.20;100.00;98863.28;4974352;28;20222;-65
2020/12/21 05:52:28;;;;;;;20.23;14.73;;;;;;;5.17;100.00;98860.78;4974346;28;20224;-65
2020/12/21 05:54:54;;;;;;;19.90;14.40;;;;;;;5.20;100.00;98865.88;4974049;28;20239;-65
2020/12/21 05:57:21;;;;;;;21.17;14.93;;;;;;;5.20;100.00;98865.06;4974401;28;20222;-65
2020/12/21 05:59:49;;;;;;;19.73;14.87;;;;;;;5.12;100.00;98862.69;4974327;28;20209;-64
2020/12/21 06:02:17;;;;;;;17.53;13.67;;;;;;;5.09;100.00;98870.69;4974006;28;20212;-65
2020/12/21 06:04:48;;;;;;;18.97;14.13;;;;;;;5.10;100.00;98866.28;4974315;28;20213;-65
2020/12/21 06:07:22;;;;;;;20.03;14.07;;;;;;;5.13;100.00;98869.66;4974305;28;20218;-66
2020/12/21 06:09:50;;;;;;;18.57;13.97;;;;;;;5.13;100.00;98868.81;4974244;28;20222;-64
2020/12/21 06:12:19;;;;;;;19.80;14.07;;;;;;;5.15;100.00;98878.31;4974117;28;20233;-64
2020/12/21 06:14:47;;;;;;;20.57;14.83;;;;;;;5.14;100.00;98876.59;4972990;28;20241;-63
2020/12/21 06:17:14;;;;;;;20.27;15.20;;;;;;;5.23;100.00;98883.28;4974216;28;20225;-64
2020/12/21 06:19:40;;;;;;;17.27;13.17;;;;;;;5.25;100.00;98876.22;4973933;28;20247;-64
2020/12/21 06:22:07;;;;;;;21.33;14.77;;;;;;;5.22;100.00;98874.56;4973966;28;20217;-63
2020/12/21 06:24:37;;;;;;;17.83;14.30;;;;;;;5.26;100.00;98870.91;4974102;28;20272;-64
2020/12/21 06:27:12;;;;;;;18.00;13.70;;;;;;;5.25;100.00;98861.34;4974277;28;20218;-65
2020/12/21 06:29:38;;;;;;;18.77;13.43;;;;;;;5.26;100.00;98856.97;4973954;28;20218;-64
2020/12/21 06:32:06;;;;;;;17.53;13.37;;;;;;;5.22;100.00;98858.84;4973652;28;20223;-64
2020/12/21 06:34:34;;;;;;;17.70;13.53;;;;;;;5.05;100.00;98863.84;4974022;28;20247;-65
2020/12/21 06:37:01;;;;;;;19.37;14.73;;;;;;;5.02;100.00;98865.72;4973617;28;20680;-64
2020/12/21 06:39:28;;;;;;;18.50;13.50;;;;;;;4.94;100.00;98867.75;4972017;28;20706;-64
2020/12/21 06:42:05;;;;;;;16.60;12.73;;;;;;;4.84;100.00;98856.72;4973819;28;20218;-64
2020/12/21 06:44:32;;;;;;;16.23;12.63;;;;;;;4.90;100.00;98846.03;4973920;28;20220;-64
2020/12/21 06:46:59;;;;;;;16.47;11.27;;;;;;;4.85;100.00;98842.75;4973958;28;20222;-63
2020/12/21 06:49:25;;;;;;;15.03;11.80;;;;;;;4.77;100.00;98842.13;4973999;28;20221;-63
2020/12/21 06:51:51;;;;;;;16.37;11.67;;;;;;;4.68;100.00;98838.97;4973976;28;20220;-63
2020/12/21 06:54:18;;;;;;;16.17;11.73;;;;;;;4.56;100.00;98848.13;4973772;28;20238;-65
2020/12/21 06:56:47;;;;;;;16.07;12.00;;;;;;;4.50;100.00;98850.94;4973681;28;20216;-65
2020/12/21 06:59:14;;;;;;;18.00;12.83;;;;;;;4.44;100.00;98851.16;4973953;28;20207;-65
2020/12/21 07:01:42;;;;;;;14.23;11.90;;;;;;;4.36;100.00;98845.34;4973953;28;20228;-65
2020/12/21 07:04:13;;;;;;;17.73;12.33;;;;;;;4.36;100.00;98844.47;4973509;28;20217;-65
2020/12/21 07:06:40;;;;;;;16.57;11.90;;;;;;;4.41;100.00;98832.09;4972337;28;20221;-66
2020/12/21 07:09:07;;;;;;;15.43;11.30;;;;;;;4.51;100.00;98836.94;4973674;28;20216;-66
2020/12/21 07:11:33;;;;;;;16.20;12.37;;;;;;;4.41;100.00;98832.91;4975606;28;20221;-66
2020/12/21 07:14:00;;;;;;;17.10;13.17;;;;;;;4.45;100.00;98820.63;4977251;28;20245;-66
2020/12/21 07:16:26;;;;;;;14.37;11.30;;;;;;;4.45;100.00;98820.63;4976912;28;20215;-66
2020/12/21 07:18:52;;;;;;;14.83;11.13;;;;;;;4.41;100.00;98819.84;4976921;28;20215;-66
2020/12/21 07:21:19;;;;;;;13.17;10.77;;;;;;;4.32;100.00;98820.16;4977219;28;20215;-65
2020/12/21 07:23:45;;;;;;;13.20;10.23;;;;;;;4.24;100.00;98814.34;4977041;28;20219;-65
2020/12/21 07:26:14;;;;;;;14.53;11.17;;;;;;;4.26;100.00;98824.72;4976640;28;20743;-65
2020/12/21 07:28:40;;;;;;;16.43;11.33;;;;;;;4.22;100.00;98823.13;4976538;28;20685;-65
2020/12/21 07:31:12;;;;;;;16.77;12.03;;;;;;;4.33;100.00;98808.78;4974932;28;20676;-64
2020/12/21 07:33:54;;;;;;;13.77;11.20;;;;;;;4.31;100.00;98821.06;4976699;28;20251;-66
2020/12/21 07:36:23;;;;;;;13.70;10.50;;;;;;;4.27;100.00;98822.06;4976788;28;20218;-66
2020/12/21 07:38:51;;;;;;;13.80;11.07;;;;;;;4.26;100.00;98812.50;4976504;28;20211;-65
2020/12/21 07:41:23;;;;;;;14.13;10.47;;;;;;;4.12;100.00;98821.72;4976766;28;20211;-65
2020/12/21 07:44:04;;;;;;;13.30;10.87;;;;;;;4.10;100.00;98824.38;4976425;28;20228;-65
2020/12/21 07:46:37;;;;;;;15.13;10.53;;;;;;;4.07;100.00;98829.72;4976269;28;20210;-65
2020/12/21 07:49:04;;;;;;;14.63;11.13;;;;;;;4.14;100.00;98828.63;4976738;28;20214;-66
2020/12/21 07:51:31;;;;;;;14.90;11.57;;;;;;;4.19;100.00;98826.72;4976333;28;20556;-66
2020/12/21 07:54:00;;;;;;;16.47;12.00;;;;;;;4.30;100.00;98823.72;4976558;28;20239;-66
2020/12/21 07:56:26;;;;;;;16.63;11.67;;;;;;;4.37;100.00;98833.94;4975504;28;20219;-64
2020/12/21 07:58:52;;;;;;;14.07;10.83;;;;;;;4.48;100.00;98841.44;4975544;28;20692;-63
2020/12/21 08:01:21;;;;;;;19.67;12.43;;;;;;;4.52;100.00;98836.03;4976381;28;20250;-64
2020/12/21 08:03:51;;;;;;;15.60;11.97;;;;;;;4.62;100.00;98845.31;4976204;28;20267;-64
2020/12/21 08:06:22;;;;;;;16.03;12.20;;;;;;;4.65;100.00;98842.56;4976487;28;20214;-63
2020/12/21 08:08:48;;;;;;;16.00;10.77;;;;;;;4.73;100.00;98834.44;4975895;28;20595;-65
2020/12/21 08:11:16;;;;;;;12.93;10.00;;;;;;;4.78;100.00;98830.78;4975821;28;20224;-63
2020/12/21 08:13:46;;;;;;;13.43;9.97;;;;;;;4.83;100.00;98830.59;4976004;28;20251;-63
2020/12/21 08:16:12;;;;;;;13.90;10.27;;;;;;;4.86;100.00;98827.88;4976120;28;20265;-65
2020/12/21 08:18:38;;;;;;;16.10;11.27;;;;;;;4.84;100.00;98829.69;4975661;28;20251;-64
2020/12/21 08:21:05;;;;;;;14.27;10.37;;;;;;;4.87;100.00;98835.69;4975588;28;20217;-65
2020/12/21 08:23:32;;;;;;;14.53;10.53;;;;;;;4.89;100.00;98839.09;4973064;28;20215;-64
2020/12/21 08:25:59;;;;;;;12.93;9.50;;;;;;;4.96;100.00;98839.72;4975621;28;20212;-64
2020/12/21 08:28:32;;;;;;;13.60;9.73;;;;;;;5.03;100.00;98842.09;4975706;28;20211;-63
2020/12/21 08:31:13;;;;;;;14.03;10.10;;;;;;;5.02;100.00;98835.13;4975778;28;20218;-64
2020/12/21 08:33:42;;;;;;;15.30;10.33;;;;;;;5.02;100.00;98839.53;4976959;28;20255;-64
2020/12/21 08:36:23;;;;;;;14.03;9.83;;;;;;;5.08;100.00;98848.00;4977141;28;20691;-64
2020/12/21 08:38:50;;;;;;;13.23;10.10;;;;;;;5.06;100.00;98841.13;4978031;28;20221;-63
2020/12/21 08:41:17;;;;;;;12.50;9.73;;;;;;;5.12;100.00;98852.22;4976800;28;20224;-63
2020/12/21 08:43:43;;;;;;;13.80;9.80;;;;;;;5.19;100.00;98853.69;4975714;28;21588;-63
2020/12/21 08:46:11;;;;;;;13.47;9.90;;;;;;;5.22;100.00;98856.22;4975805;28;20216;-64
2020/12/21 08:48:39;;;;;;;11.97;10.10;;;;;;;5.25;100.00;98853.47;4973527;28;20695;-64
2020/12/21 08:51:05;;;;;;;12.83;9.87;;;;;;;5.25;100.00;98853.47;4975406;28;20342;-64
2020/12/21 08:53:31;;;;;;;12.00;9.50;;;;;;;5.27;100.00;98853.44;4975693;28;20243;-65
2020/12/21 08:55:57;;;;;;;11.57;8.90;;;;;;;5.28;100.00;98850.75;4975363;28;20225;-65
2020/12/21 08:58:23;;;;;;;13.90;9.53;;;;;;;5.33;100.00;98848.84;4975400;28;20274;-64
2020/12/21 09:00:49;;;;;;;13.07;9.47;;;;;;;5.37;100.00;98858.28;4975072;28;20299;-66
2020/12/21 09:03:15;;;;;;;12.77;9.50;;;;;;;5.41;100.00;98853.78;4975216;28;20247;-67
2020/12/21 09:05:41;;;;;;;11.63;9.40;;;;;;;5.45;100.00;98856.22;4973728;28;20219;-66
2020/12/21 09:08:07;;;;;;;13.53;9.40;;;;;;;5.49;100.00;98860.44;4971797;28;20275;-66
2020/12/21 09:10:34;;;;;;;11.60;9.83;;;;;;;5.55;100.00;98854.97;4974106;28;20223;-65
2020/12/21 09:13:00;;;;;;;13.77;9.87;;;;;;;5.62;100.00;98863.47;4975065;28;20228;-65
2020/12/21 09:15:26;;;;;;;14.27;10.40;;;;;;;5.68;100.00;98864.06;4973376;28;20922;-65
2020/12/21 09:17:52;;;;;;;14.37;9.90;;;;;;;5.73;100.00;98867.38;4974678;28;20258;-65
2020/12/21 09:20:18;;;;;;;11.90;9.67;;;;;;;5.77;100.00;98863.72;4974699;28;20218;-65
2020/12/21 09:22:45;;;;;;;11.37;9.33;;;;;;;5.81;100.00;98859.25;4975080;28;20212;-65
2020/12/21 09:25:13;;;;;;;12.67;9.70;;;;;;;5.85;100.00;98856.44;4974768;28;20216;-63
2020/12/21 09:27:40;;;;;;;12.23;9.70;;;;;;;5.92;100.00;98855.28;4974895;28;20244;-65
2020/12/21 09:30:06;;;;;;;12.37;8.93;;;;;;;5.95;100.00;98846.44;4974746;28;20212;-66
2020/12/21 09:32:32;;;;;;;12.27;9.70;;;;;;;5.97;100.00;98850.72;4974629;28;20220;-65
2020/12/21 09:34:58;;;;;;;11.60;9.03;;;;;;;6.01;100.00;98849.69;4974335;28;20732;-65
2020/12/21 09:37:24;;;;;;;13.03;9.73;;;;;;;6.06;100.00;98841.63;4974469;28;20249;-65
2020/12/21 09:39:50;;;;;;;11.10;8.97;;;;;;;6.08;100.00;98845.91;4974691;28;20218;-65
2020/12/21 09:42:16;;;;;;;12.27;9.10;;;;;;;6.12;100.00;98849.25;4973038;28;20653;-64
2020/12/21 09:44:43;;;;;;;12.23;9.10;;;;;;;6.14;100.00;98837.78;4974232;28;20275;-64
2020/12/21 09:47:08;;;;;;;11.33;9.03;;;;;;;6.18;100.00;98841.97;4974527;28;20220;-64
2020/12/21 09:49:34;;;;;;;11.57;8.53;;;;;;;6.20;100.00;98832.28;4974196;28;20218;-65
2020/12/21 09:52:00;;;;;;;12.57;8.70;;;;;;;6.22;100.00;98834.88;4974503;28;20224;-65
2020/12/21 09:54:26;;;;;;;10.57;8.17;;;;;;;6.25;100.00;98830.34;4974087;28;20684;-65
2020/12/21 09:56:52;;;;;;;11.07;8.80;;;;;;;6.23;100.00;98826.06;4974419;28;20580;-64
2020/12/21 09:59:18;;;;;;;10.30;8.27;;;;;;;6.27;100.00;98823.25;4974457;28;20213;-65
2020/12/21 10:01:45;;;;;;;10.10;8.20;;;;;;;6.26;100.00;98832.03;4974411;28;20216;-65
2020/12/21 10:04:11;;;;;;;9.93;7.67;;;;;;;6.39;100.00;98832.38;4974351;28;20552;-65
2020/12/21 10:06:37;;;;;;;8.47;7.00;;;;;;;6.44;100.00;98822.53;4973194;28;20273;-65
2020/12/21 10:09:03;;;;;;;10.10;7.53;;;;;;;6.46;100.00;98815.44;4974024;28;20680;-64
2020/12/21 10:11:29;;;;;;;9.73;7.00;;;;;;;6.46;100.00;98807.56;4974448;28;20634;-65
2020/12/21 10:13:55;;;;;;;11.50;7.47;;;;;;;6.48;100.00;98811.00;4974239;28;20271;-65
2020/12/21 10:16:21;;;;;;;9.27;7.67;;;;;;;6.48;100.00;98817.09;4974056;28;20309;-63
2020/12/21 10:18:48;;;;;;;9.23;7.27;;;;;;;6.47;100.00;98810.13;4974291;28;20216;-64
2020/12/21 10:21:14;;;;;;;9.30;7.00;;;;;;;6.54;100.00;98801.06;4974206;28;20225;-64
2020/12/21 10:23:40;;;;;;;8.70;7.37;;;;;;;6.52;100.00;98800.28;4974190;28;20215;-64
2020/12/21 10:26:06;;;;;;;8.87;7.27;;;;;;;6.59;100.00;98804.34;4974148;28;20218;-64
2020/12/21 10:28:32;;;;;;;9.17;7.53;;;;;;;6.69;100.00;98795.19;4970900;28;20735;-63
2020/12/21 10:30:58;;;;;;;9.77;7.27;;;;;;;6.77;100.00;98786.97;4972133;28;20212;-65
2020/12/21 10:33:24;;;;;;;7.90;6.80;;;;;;;6.85;100.00;98793.56;4970923;28;20241;-64
2020/12/21 10:35:51;;;;;;;9.17;7.60;;;;;;;6.91;100.00;98788.03;4958485;28;20223;-66
2020/12/21 10:38:17;;;;;;;10.57;7.27;;;;;;;6.96;100.00;98778.19;4953198;29;20582;-66
2020/12/21 10:40:43;;;;;;;10.47;7.70;;;;;;;6.98;100.00;98781.63;4954443;29;20226;-66
2020/12/21 10:43:09;;;;;;;9.37;7.40;;;;;;;7.04;100.00;98775.22;4954922;29;20679;-66
2020/12/21 10:45:35;;;;;;;9.47;7.37;;;;;;;7.05;100.00;98766.41;4955281;28;20559;-66
2020/12/21 10:48:01;;;;;;;9.07;7.57;;;;;;;7.10;100.00;98764.44;4958445;29;20254;-66
2020/12/21 10:50:27;;;;;;;9.33;7.13;;;;;;;7.17;100.00;98756.22;4958093;29;20211;-68
2020/12/21 10:52:53;;;;;;;8.27;7.23;;;;;;;7.24;100.00;98757.63;4958111;29;20254;-67
2020/12/21 10:55:19;;;;;;;9.37;7.53;;;;;;;7.27;100.00;98752.22;4957961;29;20257;-67
2020/12/21 10:57:45;;;;;;;9.40;7.50;;;;;;;7.29;100.00;98760.91;4957910;29;20215;-67
2020/12/21 11:00:11;;;;;;;10.70;7.30;;;;;;;7.30;100.00;98762.59;4956500;29;20304;-67
2020/12/21 11:02:38;;;;;;;7.90;7.10;;;;;;;7.28;100.00;98760.03;4958018;29;20270;-68
2020/12/21 11:05:04;;;;;;;8.83;7.27;;;;;;;7.31;100.00;98753.78;4957756;29;20225;-68
2020/12/21 11:07:31;;;;;;;8.93;7.07;;;;;;;7.33;100.00;98752.81;4958017;29;20207;-68
2020/12/21 11:09:58;;;;;;;8.90;7.17;;;;;;;7.39;100.00;98744.63;4957941;29;20227;-68
2020/12/21 11:12:24;;;;;;;7.70;6.90;;;;;;;7.37;100.00;98740.34;4957959;29;20215;-68
2020/12/21 11:14:50;;;;;;;8.80;7.00;;;;;;;7.37;100.00;98745.63;4957974;29;20267;-68
2020/12/21 11:17:16;;;;;;;9.03;6.80;;;;;;;7.39;100.00;98746.38;4957838;29;20218;-68